sensor_id;sensor_type;location;lat;lon;timestamp;pressure;altitude;pressure_sealevel;temperature;humidity
58385;BME280;44185;47.844;8.966;2023-09-08T00:01:14;96441.69;;;17.69;99.22
58385;BME280;44185;47.844;8.966;2023-09-08T00:03:40;96447.25;;;17.59;100.00
58385;BME280;44185;47.844;8.966;2023-09-08T00:06:06;96439.56;;;17.56;100.00
58385;BME280;44185;47.844;8.966;2023-09-08T00:08:32;96439.91;;;17.53;100.00
58385;BME280;44185;47.844;8.966;2023-09-08T00:10:58;96439.06;;;17.44;100.00
58385;BME280;44185;47.844;8.966;2023-09-08T00:13:23;96436.06;;;17.39;100.00
58385;BME280;44185;47.844;8.966;2023-09-08T00:15:49;96439.28;;;17.34;100.00
58385;BME280;44185;47.844;8.966;2023-09-08T00:18:14;96439.13;;;17.36;100.00
58385;BME280;44185;47.844;8.966;2023-09-08T00:20:40;96444.28;;;17.37;100.00
58385;BME280;44185;47.844;8.966;2023-09-08T00:23:07;96432.41;;;17.31;100.00
58385;BME280;44185;47.844;8.966;2023-09-08T00:25:32;96429.28;;;17.28;100.00
58385;BME280;44185;47.844;8.966;2023-09-08T00:27:58;96434.78;;;17.26;100.00
58385;BME280;44185;47.844;8.966;2023-09-08T00:30:23;96434.13;;;17.24;100.00
58385;BME280;44185;47.844;8.966;2023-09-08T00:32:49;96428.75;;;17.16;100.00
58385;BME280;44185;47.844;8.966;2023-09-08T00:35:14;96429.41;;;17.09;100.00
58385;BME280;44185;47.844;8.966;2023-09-08T00:37:40;96430.75;;;17.05;100.00
58385;BME280;44185;47.844;8.966;2023-09-08T00:40:08;96424.44;;;16.89;100.00
58385;BME280;44185;47.844;8.966;2023-09-08T00:42:33;96426.63;;;16.69;100.00
58385;BME280;44185;47.844;8.966;2023-09-08T00:44:59;96424.09;;;16.51;100.00
58385;BME280;44185;47.844;8.966;2023-09-08T00:47:24;96429.09;;;16.54;100.00
58385;BME280;44185;47.844;8.966;2023-09-08T00:49:49;96425.06;;;16.33;100.00
58385;BME280;44185;47.844;8.966;2023-09-08T00:52:15;96419.84;;;16.15;100.00
58385;BME280;44185;47.844;8.966;2023-09-08T00:54:40;96430.50;;;16.06;100.00
58385;BME280;44185;47.844;8.966;2023-09-08T00:57:08;96425.88;;;16.08;100.00
58385;BME280;44185;47.844;8.966;2023-09-08T00:59:35;96417.38;;;16.13;100.00
58385;BME280;44185;47.844;8.966;2023-09-08T01:02:01;96419.97;;;16.05;100.00
58385;BME280;44185;47.844;8.966;2023-09-08T01:04:27;96423.19;;;16.08;100.00
58385;BME280;44185;47.844;8.966;2023-09-08T01:06:52;96422.66;;;16.05;100.00
58385;BME280;44185;47.844;8.966;2023-09-08T01:09:18;96419.56;;;15.83;100.00
58385;BME280;44185;47.844;8.966;2023-09-08T01:11:44;96417.41;;;15.86;100.00
58385;BME280;44185;47.844;8.966;2023-09-08T01:14:12;96427.19;;;15.69;100.00
58385;BME280;44185;47.844;8.966;2023-09-08T01:16:38;96425.22;;;15.71;100.00
58385;BME280;44185;47.844;8.966;2023-09-08T01:19:04;96418.19;;;15.70;100.00
58385;BME280;44185;47.844;8.966;2023-09-08T01:21:52;96412.50;;;15.65;100.00
58385;BME280;44185;47.844;8.966;2023-09-08T01:24:37;96411.88;;;15.79;100.00
58385;BME280;44185;47.844;8.966;2023-09-08T01:27:07;96418.22;;;15.78;100.00
58385;BME280;44185;47.844;8.966;2023-09-08T01:29:38;96421.00;;;15.60;100.00
58385;BME280;44185;47.844;8.966;2023-09-08T01:32:04;96410.16;;;15.62;100.00
58385;BME280;44185;47.844;8.966;2023-09-08T01:34:30;96413.13;;;15.59;100.00
58385;BME280;44185;47.844;8.966;2023-09-08T01:36:56;96409.97;;;15.55;100.00
58385;BME280;44185;47.844;8.966;2023-09-08T01:39:21;96410.59;;;15.49;100.00
58385;BME280;44185;47.844;8.966;2023-09-08T01:41:46;96411.56;;;15.48;100.00
58385;BME280;44185;47.844;8.966;2023-09-08T01:44:13;96407.09;;;15.48;100.00
58385;BME280;44185;47.844;8.966;2023-09-08T01:46:39;96403.03;;;15.36;100.00
58385;BME280;44185;47.844;8.966;2023-09-08T01:49:04;96404.00;;;15.34;100.00
58385;BME280;44185;47.844;8.966;2023-09-08T01:51:29;96399.84;;;15.32;100.00
58385;BME280;44185;47.844;8.966;2023-09-08T01:53:55;96396.75;;;15.18;100.00
58385;BME280;44185;47.844;8.966;2023-09-08T01:56:20;96400.31;;;15.27;100.00
58385;BME280;44185;47.844;8.966;2023-09-08T01:58:46;96396.50;;;15.30;100.00
58385;BME280;44185;47.844;8.966;2023-09-08T02:01:13;96396.88;;;15.08;100.00
58385;BME280;44185;47.844;8.966;2023-09-08T02:03:38;96395.34;;;15.06;100.00
58385;BME280;44185;47.844;8.966;2023-09-08T02:06:03;96401.16;;;15.01;100.00
58385;BME280;44185;47.844;8.966;2023-09-08T02:08:29;96392.97;;;14.94;100.00
58385;BME280;44185;47.844;8.966;2023-09-08T02:10:54;96398.97;;;14.96;100.00
58385;BME280;44185;47.844;8.966;2023-09-08T02:13:20;96394.63;;;14.95;100.00
58385;BME280;44185;47.844;8.966;2023-09-08T02:15:45;96394.47;;;14.97;100.00
58385;BME280;44185;47.844;8.966;2023-09-08T02:18:12;96399.53;;;15.08;100.00
58385;BME280;44185;47.844;8.966;2023-09-08T02:20:37;96395.53;;;15.04;100.00
58385;BME280;44185;47.844;8.966;2023-09-08T02:23:05;96390.53;;;14.83;100.00
58385;BME280;44185;47.844;8.966;2023-09-08T02:25:31;96399.34;;;14.83;100.00
58385;BME280;44185;47.844;8.966;2023-09-08T02:27:56;96391.97;;;14.95;100.00
58385;BME280;44185;47.844;8.966;2023-09-08T02:30:22;96395.00;;;15.00;100.00
58385;BME280;44185;47.844;8.966;2023-09-08T02:32:47;96401.53;;;15.06;100.00
58385;BME280;44185;47.844;8.966;2023-09-08T02:35:14;96396.88;;;15.08;100.00
58385;BME280;44185;47.844;8.966;2023-09-08T02:37:40;96408.00;;;15.04;100.00
58385;BME280;44185;47.844;8.966;2023-09-08T02:40:06;96412.22;;;14.88;100.00
58385;BME280;44185;47.844;8.966;2023-09-08T02:42:32;96397.75;;;14.90;100.00
58385;BME280;44185;47.844;8.966;2023-09-08T02:44:58;96409.56;;;14.88;100.00
58385;BME280;44185;47.844;8.966;2023-09-08T02:47:23;96405.09;;;14.88;100.00
58385;BME280;44185;47.844;8.966;2023-09-08T02:49:49;96400.63;;;14.79;100.00
58385;BME280;44185;47.844;8.966;2023-09-08T02:52:16;96391.81;;;14.78;100.00
58385;BME280;44185;47.844;8.966;2023-09-08T02:54:41;96406.53;;;14.64;100.00
58385;BME280;44185;47.844;8.966;2023-09-08T02:57:07;96405.38;;;14.67;100.00
58385;BME280;44185;47.844;8.966;2023-09-08T02:59:32;96401.44;;;14.53;100.00
58385;BME280;44185;47.844;8.966;2023-09-08T03:01:59;96396.19;;;14.43;100.00
58385;BME280;44185;47.844;8.966;2023-09-08T03:04:25;96402.41;;;14.52;100.00
58385;BME280;44185;47.844;8.966;2023-09-08T03:06:50;96405.06;;;14.52;100.00
58385;BME280;44185;47.844;8.966;2023-09-08T03:09:17;96404.78;;;14.55;100.00
58385;BME280;44185;47.844;8.966;2023-09-08T03:11:43;96404.94;;;14.53;100.00
58385;BME280;44185;47.844;8.966;2023-09-08T03:14:08;96404.56;;;14.48;100.00
58385;BME280;44185;47.844;8.966;2023-09-08T03:16:34;96401.59;;;14.33;100.00
58385;BME280;44185;47.844;8.966;2023-09-08T03:18:59;96394.06;;;14.28;100.00
58385;BME280;44185;47.844;8.966;2023-09-08T03:21:25;96392.91;;;14.31;100.00
58385;BME280;44185;47.844;8.966;2023-09-08T03:23:50;96399.00;;;14.23;100.00
58385;BME280;44185;47.844;8.966;2023-09-08T03:26:17;96404.78;;;14.18;100.00
58385;BME280;44185;47.844;8.966;2023-09-08T03:28:43;96407.59;;;14.17;100.00
58385;BME280;44185;47.844;8.966;2023-09-08T03:31:08;96402.97;;;14.19;100.00
58385;BME280;44185;47.844;8.966;2023-09-08T03:33:34;96391.09;;;14.31;100.00
58385;BME280;44185;47.844;8.966;2023-09-08T03:35:59;96393.75;;;14.31;100.00
58385;BME280;44185;47.844;8.966;2023-09-08T03:38:25;96393.25;;;14.28;100.00
58385;BME280;44185;47.844;8.966;2023-09-08T03:40:50;96387.91;;;14.28;100.00
58385;BME280;44185;47.844;8.966;2023-09-08T03:43:17;96390.19;;;14.41;100.00
58385;BME280;44185;47.844;8.966;2023-09-08T03:45:44;96394.28;;;13.98;100.00
58385;BME280;44185;47.844;8.966;2023-09-08T03:48:09;96393.06;;;14.11;100.00
58385;BME280;44185;47.844;8.966;2023-09-08T03:50:35;96393.00;;;14.03;100.00
58385;BME280;44185;47.844;8.966;2023-09-08T03:53:00;96389.88;;;14.07;100.00
58385;BME280;44185;47.844;8.966;2023-09-08T03:55:26;96389.56;;;13.92;100.00
58385;BME280;44185;47.844;8.966;2023-09-08T03:57:51;96395.56;;;13.94;100.00
58385;BME280;44185;47.844;8.966;2023-09-08T04:00:19;96391.38;;;13.92;100.00
58385;BME280;44185;47.844;8.966;2023-09-08T04:02:44;96397.09;;;13.97;100.00
58385;BME280;44185;47.844;8.966;2023-09-08T04:05:10;96403.69;;;13.93;100.00
58385;BME280;44185;47.844;8.966;2023-09-08T04:07:35;96410.53;;;13.95;100.00
58385;BME280;44185;47.844;8.966;2023-09-08T04:10:01;96411.69;;;13.93;100.00
58385;BME280;44185;47.844;8.966;2023-09-08T04:12:26;96415.03;;;13.95;100.00
58385;BME280;44185;47.844;8.966;2023-09-08T04:14:52;96412.44;;;13.85;100.00
58385;BME280;44185;47.844;8.966;2023-09-08T04:17:18;96413.56;;;13.82;100.00
58385;BME280;44185;47.844;8.966;2023-09-08T04:19:44;96413.97;;;13.77;100.00
58385;BME280;44185;47.844;8.966;2023-09-08T04:22:09;96413.84;;;13.79;100.00
58385;BME280;44185;47.844;8.966;2023-09-08T04:24:35;96415.66;;;13.78;100.00
58385;BME280;44185;47.844;8.966;2023-09-08T04:27:01;96407.84;;;13.77;100.00
58385;BME280;44185;47.844;8.966;2023-09-08T04:29:26;96412.16;;;13.78;100.00
58385;BME280;44185;47.844;8.966;2023-09-08T04:31:52;96415.22;;;13.83;100.00
58385;BME280;44185;47.844;8.966;2023-09-08T04:34:18;96412.06;;;13.70;100.00
58385;BME280;44185;47.844;8.966;2023-09-08T04:36:44;96423.16;;;13.65;100.00
58385;BME280;44185;47.844;8.966;2023-09-08T04:39:09;96419.41;;;13.57;100.00
58385;BME280;44185;47.844;8.966;2023-09-08T04:41:35;96421.34;;;13.65;100.00
58385;BME280;44185;47.844;8.966;2023-09-08T04:44:00;96419.22;;;13.69;100.00
58385;BME280;44185;47.844;8.966;2023-09-08T04:46:25;96425.97;;;13.63;100.00
58385;BME280;44185;47.844;8.966;2023-09-08T04:48:51;96421.34;;;13.65;100.00
58385;BME280;44185;47.844;8.966;2023-09-08T04:51:18;96421.19;;;13.67;100.00
58385;BME280;44185;47.844;8.966;2023-09-08T04:53:43;96428.06;;;13.60;100.00
58385;BME280;44185;47.844;8.966;2023-09-08T04:56:08;96431.44;;;13.52;100.00
58385;BME280;44185;47.844;8.966;2023-09-08T04:58:34;96425.59;;;13.48;100.00
58385;BME280;44185;47.844;8.966;2023-09-08T05:00:59;96422.94;;;13.48;100.00
58385;BME280;44185;47.844;8.966;2023-09-08T05:03:25;96429.47;;;13.64;100.00
58385;BME280;44185;47.844;8.966;2023-09-08T05:05:50;96437.44;;;13.64;100.00
58385;BME280;44185;47.844;8.966;2023-09-08T05:08:17;96438.97;;;13.56;100.00
58385;BME280;44185;47.844;8.966;2023-09-08T05:10:43;96435.50;;;13.56;100.00
58385;BME280;44185;47.844;8.966;2023-09-08T05:13:09;96446.13;;;13.56;100.00
58385;BME280;44185;47.844;8.966;2023-09-08T05:15:34;96435.19;;;13.69;100.00
58385;BME280;44185;47.844;8.966;2023-09-08T05:18:00;96430.56;;;13.71;100.00
58385;BME280;44185;47.844;8.966;2023-09-08T05:20:25;96433.88;;;13.73;100.00
58385;BME280;44185;47.844;8.966;2023-09-08T05:22:50;96441.25;;;13.61;100.00
58385;BME280;44185;47.844;8.966;2023-09-08T05:25:17;96436.47;;;13.55;100.00
58385;BME280;44185;47.844;8.966;2023-09-08T05:27:43;96443.06;;;13.61;100.00
58385;BME280;44185;47.844;8.966;2023-09-08T05:30:09;96439.72;;;13.59;100.00
58385;BME280;44185;47.844;8.966;2023-09-08T05:32:34;96445.38;;;13.74;100.00
58385;BME280;44185;47.844;8.966;2023-09-08T05:35:00;96445.53;;;14.00;100.00
58385;BME280;44185;47.844;8.966;2023-09-08T05:37:25;96449.16;;;14.28;100.00
58385;BME280;44185;47.844;8.966;2023-09-08T05:39:51;96459.63;;;14.48;100.00
58385;BME280;44185;47.844;8.966;2023-09-08T05:42:17;96464.81;;;14.67;100.00
58385;BME280;44185;47.844;8.966;2023-09-08T05:44:43;96461.91;;;14.61;100.00
58385;BME280;44185;47.844;8.966;2023-09-08T05:47:08;96459.41;;;14.59;100.00
58385;BME280;44185;47.844;8.966;2023-09-08T05:49:34;96467.84;;;14.54;100.00
58385;BME280;44185;47.844;8.966;2023-09-08T05:51:59;96465.50;;;14.51;100.00
58385;BME280;44185;47.844;8.966;2023-09-08T05:54:25;96466.78;;;14.47;100.00
58385;BME280;44185;47.844;8.966;2023-09-08T05:56:50;96462.28;;;14.84;100.00
58385;BME280;44185;47.844;8.966;2023-09-08T05:59:17;96461.59;;;14.82;100.00
58385;BME280;44185;47.844;8.966;2023-09-08T06:01:43;96469.06;;;14.78;100.00
58385;BME280;44185;47.844;8.966;2023-09-08T06:04:09;96466.84;;;14.74;100.00
58385;BME280;44185;47.844;8.966;2023-09-08T06:06:34;96468.31;;;15.05;100.00
58385;BME280;44185;47.844;8.966;2023-09-08T06:09:00;96465.38;;;15.70;100.00
58385;BME280;44185;47.844;8.966;2023-09-08T06:11:25;96460.09;;;16.21;100.00
58385;BME280;44185;47.844;8.966;2023-09-08T06:13:51;96474.19;;;16.65;100.00
58385;BME280;44185;47.844;8.966;2023-09-08T06:16:17;96473.69;;;16.78;100.00
58385;BME280;44185;47.844;8.966;2023-09-08T06:18:43;96472.72;;;17.21;100.00
58385;BME280;44185;47.844;8.966;2023-09-08T06:21:08;96473.34;;;17.49;100.00
58385;BME280;44185;47.844;8.966;2023-09-08T06:23:34;96471.00;;;17.62;100.00
58385;BME280;44185;47.844;8.966;2023-09-08T06:26:00;96472.41;;;17.82;100.00
58385;BME280;44185;47.844;8.966;2023-09-08T06:28:25;96476.03;;;17.97;100.00
58385;BME280;44185;47.844;8.966;2023-09-08T06:30:51;96481.00;;;18.09;100.00
58385;BME280;44185;47.844;8.966;2023-09-08T06:33:18;96475.31;;;18.12;99.47
58385;BME280;44185;47.844;8.966;2023-09-08T06:35:43;96477.28;;;18.27;99.32
58385;BME280;44185;47.844;8.966;2023-09-08T06:38:08;96476.88;;;18.38;99.48
58385;BME280;44185;47.844;8.966;2023-09-08T06:40:34;96475.16;;;18.45;99.24
58385;BME280;44185;47.844;8.966;2023-09-08T06:42:59;96473.38;;;18.61;98.38
58385;BME280;44185;47.844;8.966;2023-09-08T06:45:25;96476.50;;;18.73;97.65
58385;BME280;44185;47.844;8.966;2023-09-08T06:47:50;96473.78;;;18.82;96.41
58385;BME280;44185;47.844;8.966;2023-09-08T06:50:17;96474.16;;;18.94;95.47
58385;BME280;44185;47.844;8.966;2023-09-08T06:52:43;96476.59;;;19.04;95.10
58385;BME280;44185;47.844;8.966;2023-09-08T06:55:08;96473.97;;;18.95;93.91
58385;BME280;44185;47.844;8.966;2023-09-08T06:57:34;96472.66;;;19.15;94.07
58385;BME280;44185;47.844;8.966;2023-09-08T06:59:59;96472.91;;;19.28;92.31
58385;BME280;44185;47.844;8.966;2023-09-08T07:02:25;96476.78;;;19.41;92.09
58385;BME280;44185;47.844;8.966;2023-09-08T07:04:50;96480.53;;;19.55;89.39
58385;BME280;44185;47.844;8.966;2023-09-08T07:07:17;96480.59;;;19.62;89.75
58385;BME280;44185;47.844;8.966;2023-09-08T07:09:43;96481.56;;;19.84;90.56
58385;BME280;44185;47.844;8.966;2023-09-08T07:12:11;96478.78;;;19.93;89.85
58385;BME280;44185;47.844;8.966;2023-09-08T07:14:36;96477.94;;;19.77;89.42
58385;BME280;44185;47.844;8.966;2023-09-08T07:17:01;96483.00;;;19.56;91.34
58385;BME280;44185;47.844;8.966;2023-09-08T07:19:27;96476.91;;;19.78;91.20
58385;BME280;44185;47.844;8.966;2023-09-08T07:21:52;96476.63;;;20.03;88.29
58385;BME280;44185;47.844;8.966;2023-09-08T07:24:19;96478.19;;;20.28;87.34
58385;BME280;44185;47.844;8.966;2023-09-08T07:26:45;96478.59;;;20.47;87.51
58385;BME280;44185;47.844;8.966;2023-09-08T07:29:10;96480.44;;;20.24;87.68
58385;BME280;44185;47.844;8.966;2023-09-08T07:31:36;96483.16;;;20.46;85.15
58385;BME280;44185;47.844;8.966;2023-09-08T07:34:01;96477.78;;;20.68;85.22
58385;BME280;44185;47.844;8.966;2023-09-08T07:36:27;96472.59;;;20.44;85.48
58385;BME280;44185;47.844;8.966;2023-09-08T07:38:54;96479.38;;;20.62;84.64
58385;BME280;44185;47.844;8.966;2023-09-08T07:41:21;96478.63;;;20.69;84.20
58385;BME280;44185;47.844;8.966;2023-09-08T07:43:47;96477.84;;;20.97;83.94
58385;BME280;44185;47.844;8.966;2023-09-08T07:46:13;96469.34;;;20.93;82.83
58385;BME280;44185;47.844;8.966;2023-09-08T07:48:38;96477.66;;;20.54;85.34
58385;BME280;44185;47.844;8.966;2023-09-08T07:51:04;96467.41;;;20.43;86.17
58385;BME280;44185;47.844;8.966;2023-09-08T07:53:29;96481.47;;;20.82;85.84
58385;BME280;44185;47.844;8.966;2023-09-08T07:55:55;96476.53;;;21.08;85.81
58385;BME280;44185;47.844;8.966;2023-09-08T07:58:22;96472.00;;;20.64;84.57
58385;BME280;44185;47.844;8.966;2023-09-08T08:00:47;96472.22;;;20.92;85.76
58385;BME280;44185;47.844;8.966;2023-09-08T08:03:13;96482.81;;;21.15;81.56
58385;BME280;44185;47.844;8.966;2023-09-08T08:05:38;96477.19;;;21.10;83.01
58385;BME280;44185;47.844;8.966;2023-09-08T08:08:04;96478.84;;;21.11;82.31
58385;BME280;44185;47.844;8.966;2023-09-08T08:10:29;96475.91;;;21.06;82.79
58385;BME280;44185;47.844;8.966;2023-09-08T08:12:55;96476.91;;;21.27;79.52
58385;BME280;44185;47.844;8.966;2023-09-08T08:15:33;96478.84;;;21.40;80.90
58385;BME280;44185;47.844;8.966;2023-09-08T08:17:59;96479.34;;;21.50;79.71
58385;BME280;44185;47.844;8.966;2023-09-08T08:20:25;96489.81;;;21.67;78.96
58385;BME280;44185;47.844;8.966;2023-09-08T08:22:50;96483.47;;;21.46;78.38
58385;BME280;44185;47.844;8.966;2023-09-08T08:25:16;96484.69;;;21.43;82.74
58385;BME280;44185;47.844;8.966;2023-09-08T08:27:41;96484.81;;;21.64;80.67
58385;BME280;44185;47.844;8.966;2023-09-08T08:30:07;96484.31;;;21.47;81.11
58385;BME280;44185;47.844;8.966;2023-09-08T08:32:34;96483.50;;;21.24;81.57
58385;BME280;44185;47.844;8.966;2023-09-08T08:35:00;96487.56;;;21.42;83.21
58385;BME280;44185;47.844;8.966;2023-09-08T08:37:25;96493.41;;;21.45;83.37
58385;BME280;44185;47.844;8.966;2023-09-08T08:39:51;96489.59;;;21.69;81.65
58385;BME280;44185;47.844;8.966;2023-09-08T08:42:16;96493.69;;;21.58;82.11
58385;BME280;44185;47.844;8.966;2023-09-08T08:44:42;96487.91;;;21.61;81.66
58385;BME280;44185;47.844;8.966;2023-09-08T08:47:08;96485.22;;;21.61;82.02
58385;BME280;44185;47.844;8.966;2023-09-08T08:49:36;96484.78;;;21.57;82.04
58385;BME280;44185;47.844;8.966;2023-09-08T08:52:02;96491.28;;;21.70;83.09
58385;BME280;44185;47.844;8.966;2023-09-08T08:54:28;96483.47;;;21.82;83.37
58385;BME280;44185;47.844;8.966;2023-09-08T08:56:54;96481.94;;;22.01;84.52
58385;BME280;44185;47.844;8.966;2023-09-08T08:59:19;96479.84;;;21.89;84.69
58385;BME280;44185;47.844;8.966;2023-09-08T09:01:45;96481.38;;;21.77;84.13
58385;BME280;44185;47.844;8.966;2023-09-08T09:04:12;96480.84;;;21.88;83.58
58385;BME280;44185;47.844;8.966;2023-09-08T09:06:40;96481.78;;;22.09;82.34
58385;BME280;44185;47.844;8.966;2023-09-08T09:09:05;96475.16;;;22.12;84.21
58385;BME280;44185;47.844;8.966;2023-09-08T09:11:31;96476.47;;;22.23;81.43
58385;BME280;44185;47.844;8.966;2023-09-08T09:13:56;96477.69;;;22.20;80.16
58385;BME280;44185;47.844;8.966;2023-09-08T09:16:21;96476.78;;;22.06;81.14
58385;BME280;44185;47.844;8.966;2023-09-08T09:18:54;96472.94;;;22.22;79.72
58385;BME280;44185;47.844;8.966;2023-09-08T09:21:19;96473.59;;;22.38;80.18
58385;BME280;44185;47.844;8.966;2023-09-08T09:23:46;96468.53;;;22.77;79.60
58385;BME280;44185;47.844;8.966;2023-09-08T09:26:22;96474.06;;;22.55;78.72
58385;BME280;44185;47.844;8.966;2023-09-08T09:28:48;96467.03;;;22.61;82.42
58385;BME280;44185;47.844;8.966;2023-09-08T09:31:13;96465.22;;;22.75;79.79
58385;BME280;44185;47.844;8.966;2023-09-08T09:33:39;96467.03;;;22.61;80.06
58385;BME280;44185;47.844;8.966;2023-09-08T09:36:05;96465.63;;;22.72;80.92
58385;BME280;44185;47.844;8.966;2023-09-08T09:38:31;96467.72;;;22.91;83.42
58385;BME280;44185;47.844;8.966;2023-09-08T09:41:01;96471.28;;;22.98;78.61
58385;BME280;44185;47.844;8.966;2023-09-08T09:43:28;96469.78;;;22.75;80.70
58385;BME280;44185;47.844;8.966;2023-09-08T09:45:53;96459.44;;;22.92;80.01
58385;BME280;44185;47.844;8.966;2023-09-08T09:48:20;96466.28;;;23.08;81.16
58385;BME280;44185;47.844;8.966;2023-09-08T09:50:46;96463.41;;;23.17;79.80
58385;BME280;44185;47.844;8.966;2023-09-08T09:53:13;96456.31;;;23.16;82.87
58385;BME280;44185;47.844;8.966;2023-09-08T09:55:39;96459.00;;;23.22;81.72
58385;BME280;44185;47.844;8.966;2023-09-08T09:58:07;96445.94;;;23.26;79.41
58385;BME280;44185;47.844;8.966;2023-09-08T10:00:34;96448.03;;;23.24;80.62
58385;BME280;44185;47.844;8.966;2023-09-08T10:03:00;96449.47;;;23.33;81.16
58385;BME280;44185;47.844;8.966;2023-09-08T10:05:26;96451.53;;;23.45;79.88
58385;BME280;44185;47.844;8.966;2023-09-08T10:07:52;96449.88;;;23.58;78.90
58385;BME280;44185;47.844;8.966;2023-09-08T10:10:19;96452.97;;;23.68;79.75
58385;BME280;44185;47.844;8.966;2023-09-08T10:12:46;96446.34;;;23.50;79.67
58385;BME280;44185;47.844;8.966;2023-09-08T10:15:18;96450.06;;;23.49;81.82
58385;BME280;44185;47.844;8.966;2023-09-08T10:17:44;96448.44;;;23.62;79.62
58385;BME280;44185;47.844;8.966;2023-09-08T10:20:10;96446.31;;;23.77;81.57
58385;BME280;44185;47.844;8.966;2023-09-08T10:22:38;96438.78;;;23.93;83.17
58385;BME280;44185;47.844;8.966;2023-09-08T10:25:06;96440.22;;;23.96;79.56
58385;BME280;44185;47.844;8.966;2023-09-08T10:27:31;96439.81;;;23.92;80.97
58385;BME280;44185;47.844;8.966;2023-09-08T10:30:00;96440.47;;;23.81;81.46
58385;BME280;44185;47.844;8.966;2023-09-08T10:32:28;96435.19;;;24.06;80.26
58385;BME280;44185;47.844;8.966;2023-09-08T10:34:54;96435.56;;;24.17;79.15
58385;BME280;44185;47.844;8.966;2023-09-08T10:37:20;96429.91;;;24.25;80.61
58385;BME280;44185;47.844;8.966;2023-09-08T10:39:46;96429.31;;;24.62;78.65
58385;BME280;44185;47.844;8.966;2023-09-08T10:42:20;96425.84;;;24.55;79.87
58385;BME280;44185;47.844;8.966;2023-09-08T10:44:55;96423.19;;;24.41;80.18
58385;BME280;44185;47.844;8.966;2023-09-08T10:47:22;96424.47;;;24.39;79.92
58385;BME280;44185;47.844;8.966;2023-09-08T10:49:50;96429.28;;;24.30;80.30
58385;BME280;44185;47.844;8.966;2023-09-08T10:52:16;96424.66;;;24.44;80.67
58385;BME280;44185;47.844;8.966;2023-09-08T10:54:41;96415.63;;;24.50;80.84
58385;BME280;44185;47.844;8.966;2023-09-08T10:57:12;96421.72;;;24.78;79.67
58385;BME280;44185;47.844;8.966;2023-09-08T10:59:38;96416.41;;;24.90;77.67
58385;BME280;44185;47.844;8.966;2023-09-08T11:02:04;96414.50;;;24.97;77.05
58385;BME280;44185;47.844;8.966;2023-09-08T11:04:30;96408.63;;;25.00;78.36
58385;BME280;44185;47.844;8.966;2023-09-08T11:06:57;96417.50;;;25.15;77.23
58385;BME280;44185;47.844;8.966;2023-09-08T11:09:23;96406.25;;;25.11;76.11
58385;BME280;44185;47.844;8.966;2023-09-08T11:11:48;96413.22;;;25.00;76.60
58385;BME280;44185;47.844;8.966;2023-09-08T11:14:14;96404.66;;;25.03;78.53
58385;BME280;44185;47.844;8.966;2023-09-08T11:16:39;96405.38;;;25.17;78.68
58385;BME280;44185;47.844;8.966;2023-09-08T11:19:04;96402.25;;;25.20;78.47
58385;BME280;44185;47.844;8.966;2023-09-08T11:21:30;96408.38;;;25.53;76.92
58385;BME280;44185;47.844;8.966;2023-09-08T11:23:57;96406.59;;;25.66;76.23
58385;BME280;44185;47.844;8.966;2023-09-08T11:26:24;96405.19;;;25.82;76.03
58385;BME280;44185;47.844;8.966;2023-09-08T11:28:49;96404.09;;;25.64;75.19
58385;BME280;44185;47.844;8.966;2023-09-08T11:31:16;96405.38;;;25.62;72.99
58385;BME280;44185;47.844;8.966;2023-09-08T11:33:41;96404.22;;;25.51;73.72
58385;BME280;44185;47.844;8.966;2023-09-08T11:36:12;96408.56;;;25.77;75.78
58385;BME280;44185;47.844;8.966;2023-09-08T11:38:37;96400.88;;;25.93;75.01
58385;BME280;44185;47.844;8.966;2023-09-08T11:41:04;96399.69;;;25.89;73.39
58385;BME280;44185;47.844;8.966;2023-09-08T11:43:30;96408.34;;;25.79;73.39
58385;BME280;44185;47.844;8.966;2023-09-08T11:45:56;96403.53;;;25.81;75.04
58385;BME280;44185;47.844;8.966;2023-09-08T11:48:21;96395.78;;;25.85;74.23
58385;BME280;44185;47.844;8.966;2023-09-08T11:50:49;96395.69;;;25.92;72.81
58385;BME280;44185;47.844;8.966;2023-09-08T11:53:19;96392.88;;;25.98;74.60
58385;BME280;44185;47.844;8.966;2023-09-08T11:55:44;96400.84;;;26.12;72.69
58385;BME280;44185;47.844;8.966;2023-09-08T11:58:12;96395.91;;;26.09;72.99
58385;BME280;44185;47.844;8.966;2023-09-08T12:00:38;96389.09;;;26.18;72.22
58385;BME280;44185;47.844;8.966;2023-09-08T12:03:10;96387.41;;;26.17;71.67
58385;BME280;44185;47.844;8.966;2023-09-08T12:05:36;96386.19;;;26.32;71.67
58385;BME280;44185;47.844;8.966;2023-09-08T12:08:04;96381.69;;;26.26;71.62
58385;BME280;44185;47.844;8.966;2023-09-08T12:10:29;96383.47;;;26.32;69.66
58385;BME280;44185;47.844;8.966;2023-09-08T12:12:55;96381.25;;;26.41;68.91
58385;BME280;44185;47.844;8.966;2023-09-08T12:15:32;96380.06;;;26.37;70.79
58385;BME280;44185;47.844;8.966;2023-09-08T12:17:58;96380.97;;;26.49;69.23
58385;BME280;44185;47.844;8.966;2023-09-08T12:20:24;96381.88;;;26.43;68.34
58385;BME280;44185;47.844;8.966;2023-09-08T12:22:49;96374.84;;;26.54;69.30
58385;BME280;44185;47.844;8.966;2023-09-08T12:25:15;96367.19;;;26.63;68.76
58385;BME280;44185;47.844;8.966;2023-09-08T12:27:41;96370.88;;;26.69;67.50
58385;BME280;44185;47.844;8.966;2023-09-08T12:30:07;96373.69;;;26.62;67.57
58385;BME280;44185;47.844;8.966;2023-09-08T12:32:34;96373.44;;;26.63;67.44
58385;BME280;44185;47.844;8.966;2023-09-08T12:35:02;96368.75;;;26.71;66.46
58385;BME280;44185;47.844;8.966;2023-09-08T12:37:28;96369.44;;;26.78;66.63
58385;BME280;44185;47.844;8.966;2023-09-08T12:39:53;96362.13;;;26.79;68.35
58385;BME280;44185;47.844;8.966;2023-09-08T12:42:19;96364.50;;;26.75;66.08
58385;BME280;44185;47.844;8.966;2023-09-08T12:44:44;96359.88;;;26.75;67.39
58385;BME280;44185;47.844;8.966;2023-09-08T12:47:10;96355.66;;;26.92;67.14
58385;BME280;44185;47.844;8.966;2023-09-08T12:49:37;96357.09;;;27.06;66.68